sensor_id;sensor_type;location;lat;lon;timestamp;temperature;humidity
24097;DHT22;12275;48.550;12.132;2022-09-01T00:01:14;17.20;99.90
24097;DHT22;12275;48.550;12.132;2022-09-01T00:03:46;17.10;99.90
24097;DHT22;12275;48.550;12.132;2022-09-01T00:06:14;17.10;99.90
24097;DHT22;12275;48.550;12.132;2022-09-01T00:08:54;17.20;99.90
24097;DHT22;12275;48.550;12.132;2022-09-01T00:11:21;17.10;99.90
24097;DHT22;12275;48.550;12.132;2022-09-01T00:13:48;17.20;99.90
24097;DHT22;12275;48.550;12.132;2022-09-01T00:16:15;17.10;99.90
24097;DHT22;12275;48.550;12.132;2022-09-01T00:18:44;17.20;99.90
24097;DHT22;12275;48.550;12.132;2022-09-01T00:21:18;17.10;99.90
24097;DHT22;12275;48.550;12.132;2022-09-01T00:23:45;17.10;99.90
24097;DHT22;12275;48.550;12.132;2022-09-01T00:26:11;17.10;99.90
24097;DHT22;12275;48.550;12.132;2022-09-01T00:28:38;17.10;99.90
24097;DHT22;12275;48.550;12.132;2022-09-01T00:31:05;17.10;99.90
24097;DHT22;12275;48.550;12.132;2022-09-01T00:33:33;17.10;99.90
24097;DHT22;12275;48.550;12.132;2022-09-01T00:35:59;17.00;99.90
24097;DHT22;12275;48.550;12.132;2022-09-01T00:38:26;17.10;99.90
24097;DHT22;12275;48.550;12.132;2022-09-01T00:40:52;17.10;99.90
24097;DHT22;12275;48.550;12.132;2022-09-01T00:43:34;17.10;99.90
24097;DHT22;12275;48.550;12.132;2022-09-01T00:46:02;17.10;99.90
24097;DHT22;12275;48.550;12.132;2022-09-01T00:48:28;17.10;99.90
24097;DHT22;12275;48.550;12.132;2022-09-01T00:50:54;17.10;99.90
24097;DHT22;12275;48.550;12.132;2022-09-01T00:53:20;17.00;99.90
24097;DHT22;12275;48.550;12.132;2022-09-01T00:55:46;17.10;99.90
24097;DHT22;12275;48.550;12.132;2022-09-01T00:58:12;17.00;99.90
24097;DHT22;12275;48.550;12.132;2022-09-01T01:00:38;17.10;99.90
24097;DHT22;12275;48.550;12.132;2022-09-01T01:03:09;17.10;99.90
24097;DHT22;12275;48.550;12.132;2022-09-01T01:05:57;17.00;99.90
24097;DHT22;12275;48.550;12.132;2022-09-01T01:08:33;17.00;99.90
24097;DHT22;12275;48.550;12.132;2022-09-01T01:11:03;17.00;99.90
24097;DHT22;12275;48.550;12.132;2022-09-01T01:13:29;17.00;99.90
24097;DHT22;12275;48.550;12.132;2022-09-01T01:16:02;17.00;99.90
24097;DHT22;12275;48.550;12.132;2022-09-01T01:18:28;17.00;99.90
24097;DHT22;12275;48.550;12.132;2022-09-01T01:21:17;17.00;99.90
24097;DHT22;12275;48.550;12.132;2022-09-01T01:26:48;17.00;99.90
24097;DHT22;12275;48.550;12.132;2022-09-01T01:29:14;17.00;99.90
24097;DHT22;12275;48.550;12.132;2022-09-01T01:31:40;17.00;99.90
24097;DHT22;12275;48.550;12.132;2022-09-01T01:34:06;17.00;99.90
24097;DHT22;12275;48.550;12.132;2022-09-01T01:36:35;17.00;99.90
24097;DHT22;12275;48.550;12.132;2022-09-01T01:39:14;17.00;99.90
24097;DHT22;12275;48.550;12.132;2022-09-01T01:41:40;17.00;99.90
24097;DHT22;12275;48.550;12.132;2022-09-01T01:44:10;17.00;99.90
24097;DHT22;12275;48.550;12.132;2022-09-01T01:46:41;16.90;99.90
24097;DHT22;12275;48.550;12.132;2022-09-01T01:49:08;16.90;99.90
24097;DHT22;12275;48.550;12.132;2022-09-01T01:51:34;17.00;99.90
24097;DHT22;12275;48.550;12.132;2022-09-01T01:54:01;17.00;99.90
24097;DHT22;12275;48.550;12.132;2022-09-01T01:56:31;16.90;99.90
24097;DHT22;12275;48.550;12.132;2022-09-01T01:58:57;16.90;99.90
24097;DHT22;12275;48.550;12.132;2022-09-01T02:01:26;16.90;99.90
24097;DHT22;12275;48.550;12.132;2022-09-01T02:03:54;16.90;99.90
24097;DHT22;12275;48.550;12.132;2022-09-01T02:06:22;16.90;99.90
24097;DHT22;12275;48.550;12.132;2022-09-01T02:08:50;16.90;99.90
24097;DHT22;12275;48.550;12.132;2022-09-01T02:11:17;16.90;99.90
24097;DHT22;12275;48.550;12.132;2022-09-01T02:13:43;16.90;99.90
24097;DHT22;12275;48.550;12.132;2022-09-01T02:16:11;16.90;99.90
24097;DHT22;12275;48.550;12.132;2022-09-01T02:18:44;16.90;99.90
24097;DHT22;12275;48.550;12.132;2022-09-01T02:21:14;16.90;99.90
24097;DHT22;12275;48.550;12.132;2022-09-01T02:23:45;16.90;99.90
24097;DHT22;12275;48.550;12.132;2022-09-01T02:26:12;16.90;99.90
24097;DHT22;12275;48.550;12.132;2022-09-01T02:28:39;16.90;99.90
24097;DHT22;12275;48.550;12.132;2022-09-01T02:31:08;16.90;99.90
24097;DHT22;12275;48.550;12.132;2022-09-01T02:33:35;16.90;99.90
24097;DHT22;12275;48.550;12.132;2022-09-01T02:36:04;16.90;99.90
24097;DHT22;12275;48.550;12.132;2022-09-01T02:38:30;16.80;99.90
24097;DHT22;12275;48.550;12.132;2022-09-01T02:40:59;16.90;99.90
24097;DHT22;12275;48.550;12.132;2022-09-01T02:43:28;16.90;99.90
24097;DHT22;12275;48.550;12.132;2022-09-01T02:45:58;16.80;99.90
24097;DHT22;12275;48.550;12.132;2022-09-01T02:48:37;16.80;99.90
24097;DHT22;12275;48.550;12.132;2022-09-01T02:51:06;16.80;99.90
24097;DHT22;12275;48.550;12.132;2022-09-01T02:53:33;16.90;99.90
24097;DHT22;12275;48.550;12.132;2022-09-01T02:56:00;16.90;99.90
24097;DHT22;12275;48.550;12.132;2022-09-01T02:58:28;16.80;99.90
24097;DHT22;12275;48.550;12.132;2022-09-01T03:00:56;16.80;99.90
24097;DHT22;12275;48.550;12.132;2022-09-01T03:03:23;16.80;99.90
24097;DHT22;12275;48.550;12.132;2022-09-01T03:05:52;16.80;99.90
24097;DHT22;12275;48.550;12.132;2022-09-01T03:08:23;16.80;99.90
24097;DHT22;12275;48.550;12.132;2022-09-01T03:10:49;16.80;99.90
24097;DHT22;12275;48.550;12.132;2022-09-01T03:13:20;16.70;99.90
24097;DHT22;12275;48.550;12.132;2022-09-01T03:15:46;16.70;99.90
24097;DHT22;12275;48.550;12.132;2022-09-01T03:18:13;16.70;99.90
24097;DHT22;12275;48.550;12.132;2022-09-01T03:20:40;16.70;99.90
24097;DHT22;12275;48.550;12.132;2022-09-01T03:23:13;16.70;99.90
24097;DHT22;12275;48.550;12.132;2022-09-01T03:25:43;16.70;99.90
24097;DHT22;12275;48.550;12.132;2022-09-01T03:28:10;16.80;99.90
24097;DHT22;12275;48.550;12.132;2022-09-01T03:30:38;16.80;99.90
24097;DHT22;12275;48.550;12.132;2022-09-01T03:33:06;16.70;99.90
24097;DHT22;12275;48.550;12.132;2022-09-01T03:35:32;16.70;99.90
24097;DHT22;12275;48.550;12.132;2022-09-01T03:37:59;16.70;99.90
24097;DHT22;12275;48.550;12.132;2022-09-01T03:40:28;16.70;99.90
24097;DHT22;12275;48.550;12.132;2022-09-01T03:42:57;16.70;99.90
24097;DHT22;12275;48.550;12.132;2022-09-01T03:45:23;16.70;99.90
24097;DHT22;12275;48.550;12.132;2022-09-01T03:47:50;16.70;99.90
24097;DHT22;12275;48.550;12.132;2022-09-01T03:50:19;16.60;99.90
24097;DHT22;12275;48.550;12.132;2022-09-01T03:52:56;16.70;99.90
24097;DHT22;12275;48.550;12.132;2022-09-01T03:55:26;16.70;99.90
24097;DHT22;12275;48.550;12.132;2022-09-01T03:57:53;16.60;99.90
24097;DHT22;12275;48.550;12.132;2022-09-01T04:00:22;16.60;99.90
24097;DHT22;12275;48.550;12.132;2022-09-01T04:02:50;16.70;99.90
24097;DHT22;12275;48.550;12.132;2022-09-01T04:05:17;16.60;99.90
24097;DHT22;12275;48.550;12.132;2022-09-01T04:07:49;16.70;99.90
24097;DHT22;12275;48.550;12.132;2022-09-01T04:10:16;16.70;99.90
24097;DHT22;12275;48.550;12.132;2022-09-01T04:12:43;16.60;99.90
24097;DHT22;12275;48.550;12.132;2022-09-01T04:15:09;16.60;99.90
24097;DHT22;12275;48.550;12.132;2022-09-01T04:17:41;16.60;99.90
24097;DHT22;12275;48.550;12.132;2022-09-01T04:20:25;16.60;99.90
24097;DHT22;12275;48.550;12.132;2022-09-01T04:22:52;16.60;99.90
24097;DHT22;12275;48.550;12.132;2022-09-01T04:25:19;16.60;99.90
24097;DHT22;12275;48.550;12.132;2022-09-01T04:27:51;16.60;99.90
24097;DHT22;12275;48.550;12.132;2022-09-01T04:30:22;16.50;99.90
24097;DHT22;12275;48.550;12.132;2022-09-01T04:32:51;16.50;99.90
24097;DHT22;12275;48.550;12.132;2022-09-01T04:35:22;16.60;99.90
24097;DHT22;12275;48.550;12.132;2022-09-01T04:37:58;16.60;99.90
24097;DHT22;12275;48.550;12.132;2022-09-01T04:40:24;16.60;99.90
24097;DHT22;12275;48.550;12.132;2022-09-01T04:42:51;16.50;99.90
24097;DHT22;12275;48.550;12.132;2022-09-01T04:45:17;16.50;99.90
24097;DHT22;12275;48.550;12.132;2022-09-01T04:47:47;16.50;99.90
24097;DHT22;12275;48.550;12.132;2022-09-01T04:50:13;16.50;99.90
24097;DHT22;12275;48.550;12.132;2022-09-01T04:52:45;16.50;99.90
24097;DHT22;12275;48.550;12.132;2022-09-01T04:55:13;16.50;99.90
24097;DHT22;12275;48.550;12.132;2022-09-01T04:57:46;16.50;99.90
24097;DHT22;12275;48.550;12.132;2022-09-01T05:00:19;16.50;99.90
24097;DHT22;12275;48.550;12.132;2022-09-01T05:02:57;16.50;99.90
24097;DHT22;12275;48.550;12.132;2022-09-01T05:05:34;16.50;99.90
24097;DHT22;12275;48.550;12.132;2022-09-01T05:08:04;16.50;99.90
24097;DHT22;12275;48.550;12.132;2022-09-01T05:10:30;16.50;99.90
24097;DHT22;12275;48.550;12.132;2022-09-01T05:12:59;16.50;99.90
24097;DHT22;12275;48.550;12.132;2022-09-01T05:15:25;16.50;99.90
24097;DHT22;12275;48.550;12.132;2022-09-01T05:17:51;16.50;99.90
24097;DHT22;12275;48.550;12.132;2022-09-01T05:20:20;16.50;99.90
24097;DHT22;12275;48.550;12.132;2022-09-01T05:22:46;16.50;99.90
24097;DHT22;12275;48.550;12.132;2022-09-01T05:25:11;16.50;99.90
24097;DHT22;12275;48.550;12.132;2022-09-01T05:27:46;16.50;99.90
24097;DHT22;12275;48.550;12.132;2022-09-01T05:32:43;16.60;99.90
24097;DHT22;12275;48.550;12.132;2022-09-01T05:35:09;16.50;99.90
24097;DHT22;12275;48.550;12.132;2022-09-01T05:37:35;16.50;99.90
24097;DHT22;12275;48.550;12.132;2022-09-01T05:40:06;16.60;99.90
24097;DHT22;12275;48.550;12.132;2022-09-01T05:42:34;16.60;99.90
24097;DHT22;12275;48.550;12.132;2022-09-01T05:45:03;16.50;99.90
24097;DHT22;12275;48.550;12.132;2022-09-01T05:47:29;16.60;99.90
24097;DHT22;12275;48.550;12.132;2022-09-01T05:49:54;16.60;99.90
24097;DHT22;12275;48.550;12.132;2022-09-01T05:52:21;16.60;99.90
24097;DHT22;12275;48.550;12.132;2022-09-01T05:54:49;16.60;99.90
24097;DHT22;12275;48.550;12.132;2022-09-01T05:57:16;16.60;99.90
24097;DHT22;12275;48.550;12.132;2022-09-01T05:59:43;16.60;99.90
24097;DHT22;12275;48.550;12.132;2022-09-01T06:02:10;16.60;99.90
24097;DHT22;12275;48.550;12.132;2022-09-01T06:04:37;16.60;99.90
24097;DHT22;12275;48.550;12.132;2022-09-01T06:07:11;16.70;99.90
24097;DHT22;12275;48.550;12.132;2022-09-01T06:09:40;16.70;99.90
24097;DHT22;12275;48.550;12.132;2022-09-01T06:12:07;16.80;99.90
24097;DHT22;12275;48.550;12.132;2022-09-01T06:14:42;16.80;99.90
24097;DHT22;12275;48.550;12.132;2022-09-01T06:17:09;16.80;99.90
24097;DHT22;12275;48.550;12.132;2022-09-01T06:19:36;16.90;99.90
24097;DHT22;12275;48.550;12.132;2022-09-01T06:22:03;17.00;99.90
24097;DHT22;12275;48.550;12.132;2022-09-01T06:24:28;17.10;99.90
24097;DHT22;12275;48.550;12.132;2022-09-01T06:26:54;17.10;99.90
24097;DHT22;12275;48.550;12.132;2022-09-01T06:29:20;17.10;99.90
24097;DHT22;12275;48.550;12.132;2022-09-01T06:31:46;17.10;99.90
24097;DHT22;12275;48.550;12.132;2022-09-01T06:34:16;17.20;99.90
24097;DHT22;12275;48.550;12.132;2022-09-01T06:36:43;17.20;99.90
24097;DHT22;12275;48.550;12.132;2022-09-01T06:39:10;17.20;99.90
24097;DHT22;12275;48.550;12.132;2022-09-01T06:41:48;17.10;99.90
24097;DHT22;12275;48.550;12.132;2022-09-01T06:44:17;17.10;99.90
24097;DHT22;12275;48.550;12.132;2022-09-01T06:46:50;17.10;99.90
24097;DHT22;12275;48.550;12.132;2022-09-01T06:49:16;17.10;99.90
24097;DHT22;12275;48.550;12.132;2022-09-01T06:51:43;17.20;99.90
24097;DHT22;12275;48.550;12.132;2022-09-01T06:54:11;17.10;99.90
24097;DHT22;12275;48.550;12.132;2022-09-01T06:56:38;17.10;99.90
24097;DHT22;12275;48.550;12.132;2022-09-01T06:59:04;17.20;99.90
24097;DHT22;12275;48.550;12.132;2022-09-01T07:01:33;17.20;99.90
24097;DHT22;12275;48.550;12.132;2022-09-01T07:03:59;17.20;99.90
24097;DHT22;12275;48.550;12.132;2022-09-01T07:06:25;17.20;99.90
24097;DHT22;12275;48.550;12.132;2022-09-01T07:08:57;17.30;99.90
24097;DHT22;12275;48.550;12.132;2022-09-01T07:11:26;17.50;99.90
24097;DHT22;12275;48.550;12.132;2022-09-01T07:13:55;17.60;99.90
24097;DHT22;12275;48.550;12.132;2022-09-01T07:16:23;17.80;99.90
24097;DHT22;12275;48.550;12.132;2022-09-01T07:18:50;18.10;99.90
24097;DHT22;12275;48.550;12.132;2022-09-01T07:21:17;18.30;99.90
24097;DHT22;12275;48.550;12.132;2022-09-01T07:23:43;18.50;99.90
24097;DHT22;12275;48.550;12.132;2022-09-01T07:26:09;18.80;99.90
24097;DHT22;12275;48.550;12.132;2022-09-01T07:28:36;19.10;99.90
24097;DHT22;12275;48.550;12.132;2022-09-01T07:31:02;19.20;99.90
24097;DHT22;12275;48.550;12.132;2022-09-01T07:33:30;19.10;99.90
24097;DHT22;12275;48.550;12.132;2022-09-01T07:35:56;18.80;99.90
24097;DHT22;12275;48.550;12.132;2022-09-01T07:38:26;18.60;99.90
24097;DHT22;12275;48.550;12.132;2022-09-01T07:40:53;18.50;99.90
24097;DHT22;12275;48.550;12.132;2022-09-01T07:43:20;18.50;99.90
24097;DHT22;12275;48.550;12.132;2022-09-01T07:45:48;18.50;99.90
24097;DHT22;12275;48.550;12.132;2022-09-01T07:48:16;18.40;99.90
24097;DHT22;12275;48.550;12.132;2022-09-01T07:50:46;18.40;99.90
24097;DHT22;12275;48.550;12.132;2022-09-01T07:53:16;18.40;99.90
24097;DHT22;12275;48.550;12.132;2022-09-01T07:55:46;18.50;99.90
24097;DHT22;12275;48.550;12.132;2022-09-01T07:58:14;18.70;99.90
24097;DHT22;12275;48.550;12.132;2022-09-01T08:00:40;18.90;99.90
24097;DHT22;12275;48.550;12.132;2022-09-01T08:03:10;18.80;99.90
24097;DHT22;12275;48.550;12.132;2022-09-01T08:05:36;18.60;99.90
24097;DHT22;12275;48.550;12.132;2022-09-01T08:08:02;18.60;99.90
24097;DHT22;12275;48.550;12.132;2022-09-01T08:10:29;18.50;99.90
24097;DHT22;12275;48.550;12.132;2022-09-01T08:12:55;18.50;99.90
24097;DHT22;12275;48.550;12.132;2022-09-01T08:15:21;18.40;99.90
24097;DHT22;12275;48.550;12.132;2022-09-01T08:17:47;18.50;99.90
24097;DHT22;12275;48.550;12.132;2022-09-01T08:20:13;18.50;99.90
24097;DHT22;12275;48.550;12.132;2022-09-01T08:22:41;18.50;99.90
24097;DHT22;12275;48.550;12.132;2022-09-01T08:25:10;18.50;99.90
24097;DHT22;12275;48.550;12.132;2022-09-01T08:27:37;18.50;99.90
24097;DHT22;12275;48.550;12.132;2022-09-01T08:30:08;18.50;99.90
24097;DHT22;12275;48.550;12.132;2022-09-01T08:32:35;18.50;99.90
24097;DHT22;12275;48.550;12.132;2022-09-01T08:35:01;18.60;99.90
24097;DHT22;12275;48.550;12.132;2022-09-01T08:37:28;18.90;99.90
24097;DHT22;12275;48.550;12.132;2022-09-01T08:39:54;19.00;99.90
24097;DHT22;12275;48.550;12.132;2022-09-01T08:47:18;20.20;99.90
24097;DHT22;12275;48.550;12.132;2022-09-01T08:49:45;20.50;99.90
24097;DHT22;12275;48.550;12.132;2022-09-01T08:52:34;20.60;99.90
24097;DHT22;12275;48.550;12.132;2022-09-01T08:55:12;20.90;99.90
24097;DHT22;12275;48.550;12.132;2022-09-01T08:57:41;21.20;99.90
24097;DHT22;12275;48.550;12.132;2022-09-01T09:00:12;21.20;99.90
24097;DHT22;12275;48.550;12.132;2022-09-01T09:03:01;21.40;99.90
24097;DHT22;12275;48.550;12.132;2022-09-01T09:06:07;21.50;99.90
24097;DHT22;12275;48.550;12.132;2022-09-01T09:17:01;21.10;99.90
24097;DHT22;12275;48.550;12.132;2022-09-01T09:19:29;20.80;99.90
24097;DHT22;12275;48.550;12.132;2022-09-01T09:21:58;20.50;99.90
24097;DHT22;12275;48.550;12.132;2022-09-01T09:24:29;20.00;99.90
24097;DHT22;12275;48.550;12.132;2022-09-01T09:29:41;20.60;99.90
24097;DHT22;12275;48.550;12.132;2022-09-01T09:32:08;20.90;99.90
24097;DHT22;12275;48.550;12.132;2022-09-01T09:34:41;20.70;99.90
24097;DHT22;12275;48.550;12.132;2022-09-01T09:37:26;20.70;99.90
24097;DHT22;12275;48.550;12.132;2022-09-01T09:40:15;20.40;99.90
24097;DHT22;12275;48.550;12.132;2022-09-01T15:13:21;20.10;99.90
24097;DHT22;12275;48.550;12.132;2022-09-01T15:15:47;20.60;99.90
24097;DHT22;12275;48.550;12.132;2022-09-01T15:18:13;20.50;99.90
24097;DHT22;12275;48.550;12.132;2022-09-01T15:20:40;20.50;99.90
24097;DHT22;12275;48.550;12.132;2022-09-01T15:23:14;20.40;99.90
24097;DHT22;12275;48.550;12.132;2022-09-01T15:25:40;20.30;99.90
24097;DHT22;12275;48.550;12.132;2022-09-01T15:28:06;20.20;99.90
24097;DHT22;12275;48.550;12.132;2022-09-01T15:30:32;20.20;99.90
24097;DHT22;12275;48.550;12.132;2022-09-01T15:33:00;20.20;99.90
24097;DHT22;12275;48.550;12.132;2022-09-01T15:35:27;20.10;99.90
24097;DHT22;12275;48.550;12.132;2022-09-01T15:37:54;20.10;99.90
24097;DHT22;12275;48.550;12.132;2022-09-01T15:40:21;20.10;99.90
24097;DHT22;12275;48.550;12.132;2022-09-01T15:42:48;20.10;99.90
24097;DHT22;12275;48.550;12.132;2022-09-01T15:45:17;20.20;99.90
24097;DHT22;12275;48.550;12.132;2022-09-01T15:47:44;20.20;99.90
24097;DHT22;12275;48.550;12.132;2022-09-01T15:50:11;20.10;99.90
24097;DHT22;12275;48.550;12.132;2022-09-01T15:52:51;20.20;99.90
24097;DHT22;12275;48.550;12.132;2022-09-01T15:55:23;20.10;99.90
24097;DHT22;12275;48.550;12.132;2022-09-01T15:57:50;20.10;99.90
24097;DHT22;12275;48.550;12.132;2022-09-01T16:00:20;20.10;99.90
24097;DHT22;12275;48.550;12.132;2022-09-01T16:02:46;20.10;99.90
24097;DHT22;12275;48.550;12.132;2022-09-01T16:05:12;20.10;99.90
24097;DHT22;12275;48.550;12.132;2022-09-01T16:07:38;20.10;99.90
24097;DHT22;12275;48.550;12.132;2022-09-01T16:10:05;20.00;99.90
24097;DHT22;12275;48.550;12.132;2022-09-01T16:12:36;20.00;99.90
24097;DHT22;12275;48.550;12.132;2022-09-01T16:15:01;20.00;99.90
24097;DHT22;12275;48.550;12.132;2022-09-01T16:20:20;20.00;99.90
24097;DHT22;12275;48.550;12.132;2022-09-01T16:22:56;20.00;99.90
24097;DHT22;12275;48.550;12.132;2022-09-01T16:25:29;20.00;99.90
24097;DHT22;12275;48.550;12.132;2022-09-01T16:27:56;20.00;99.90
24097;DHT22;12275;48.550;12.132;2022-09-01T16:30:27;20.00;99.90
24097;DHT22;12275;48.550;12.132;2022-09-01T16:32:57;20.00;99.90
24097;DHT22;12275;48.550;12.132;2022-09-01T16:35:40;20.10;99.90
24097;DHT22;12275;48.550;12.132;2022-09-01T16:38:29;20.10;99.90
24097;DHT22;12275;48.550;12.132;2022-09-01T16:41:13;20.10;99.90
24097;DHT22;12275;48.550;12.132;2022-09-01T16:44:03;20.10;99.90
24097;DHT22;12275;48.550;12.132;2022-09-01T16:46:38;20.10;99.90
24097;DHT22;12275;48.550;12.132;2022-09-01T16:51:42;20.00;99.90
24097;DHT22;12275;48.550;12.132;2022-09-01T16:57:15;19.90;99.90
24097;DHT22;12275;48.550;12.132;2022-09-01T16:59:59;19.90;99.90
24097;DHT22;12275;48.550;12.132;2022-09-01T17:02:44;19.90;99.90
24097;DHT22;12275;48.550;12.132;2022-09-01T17:05:24;19.90;99.90
24097;DHT22;12275;48.550;12.132;2022-09-01T17:16:20;19.80;99.90
24097;DHT22;12275;48.550;12.132;2022-09-01T17:18:53;19.80;99.90
24097;DHT22;12275;48.550;12.132;2022-09-01T17:21:38;19.70;99.90
24097;DHT22;12275;48.550;12.132;2022-09-01T17:26:41;19.70;99.90
24097;DHT22;12275;48.550;12.132;2022-09-01T17:37:41;19.60;99.90
24097;DHT22;12275;48.550;12.132;2022-09-01T17:49:19;19.50;99.90
24097;DHT22;12275;48.550;12.132;2022-09-01T17:52:16;19.50;99.90
24097;DHT22;12275;48.550;12.132;2022-09-01T18:00:39;19.40;99.90
24097;DHT22;12275;48.550;12.132;2022-09-01T18:08:55;19.40;99.90
24097;DHT22;12275;48.550;12.132;2022-09-01T18:14:08;19.40;99.90
24097;DHT22;12275;48.550;12.132;2022-09-01T18:19:22;19.30;99.90
24097;DHT22;12275;48.550;12.132;2022-09-01T18:21:59;19.30;99.90
24097;DHT22;12275;48.550;12.132;2022-09-01T18:24:34;19.30;99.90
24097;DHT22;12275;48.550;12.132;2022-09-01T18:27:06;19.30;99.90
24097;DHT22;12275;48.550;12.132;2022-09-01T18:29:33;19.30;99.90
24097;DHT22;12275;48.550;12.132;2022-09-01T18:32:20;19.30;99.90
24097;DHT22;12275;48.550;12.132;2022-09-01T18:45:53;19.20;99.90
24097;DHT22;12275;48.550;12.132;2022-09-01T18:48:44;19.20;99.90
24097;DHT22;12275;48.550;12.132;2022-09-01T18:54:07;19.10;99.90
24097;DHT22;12275;48.550;12.132;2022-09-01T18:56:39;19.10;99.90
24097;DHT22;12275;48.550;12.132;2022-09-01T19:01:42;19.10;99.90
24097;DHT22;12275;48.550;12.132;2022-09-01T19:04:38;19.00;99.90
24097;DHT22;12275;48.550;12.132;2022-09-01T19:07:30;19.00;99.90
24097;DHT22;12275;48.550;12.132;2022-09-01T19:15:43;19.00;99.90
24097;DHT22;12275;48.550;12.132;2022-09-01T19:18:29;18.90;99.90
24097;DHT22;12275;48.550;12.132;2022-09-01T19:21:19;18.90;99.90
24097;DHT22;12275;48.550;12.132;2022-09-01T19:23:50;18.90;99.90
24097;DHT22;12275;48.550;12.132;2022-09-01T19:26:20;18.80;99.90
24097;DHT22;12275;48.550;12.132;2022-09-01T19:28:53;18.80;99.90
24097;DHT22;12275;48.550;12.132;2022-09-01T19:31:32;18.80;99.90
24097;DHT22;12275;48.550;12.132;2022-09-01T19:34:08;18.80;99.90
24097;DHT22;12275;48.550;12.132;2022-09-01T19:39:28;18.70;99.90
24097;DHT22;12275;48.550;12.132;2022-09-01T19:41:58;18.70;99.90
24097;DHT22;12275;48.550;12.132;2022-09-01T19:44:29;18.60;99.90
24097;DHT22;12275;48.550;12.132;2022-09-01T19:50:19;18.50;99.90
24097;DHT22;12275;48.550;12.132;2022-09-01T19:52:54;18.60;99.90
24097;DHT22;12275;48.550;12.132;2022-09-01T19:55:50;18.50;99.90
24097;DHT22;12275;48.550;12.132;2022-09-01T19:58:20;18.50;99.90
24097;DHT22;12275;48.550;12.132;2022-09-01T20:00:53;18.40;99.90
24097;DHT22;12275;48.550;12.132;2022-09-01T20:03:38;18.40;99.90
24097;DHT22;12275;48.550;12.132;2022-09-01T20:08:52;18.20;99.90
24097;DHT22;12275;48.550;12.132;2022-09-01T20:21:52;18.00;99.90
24097;DHT22;12275;48.550;12.132;2022-09-01T20:24:28;18.00;99.90
24097;DHT22;12275;48.550;12.132;2022-09-01T20:27:31;18.00;99.90
24097;DHT22;12275;48.550;12.132;2022-09-01T20:30:24;17.90;99.90
24097;DHT22;12275;48.550;12.132;2022-09-01T20:33:04;17.80;99.90
24097;DHT22;12275;48.550;12.132;2022-09-01T20:35:40;17.80;99.90
24097;DHT22;12275;48.550;12.132;2022-09-01T20:44:39;17.80;99.90
24097;DHT22;12275;48.550;12.132;2022-09-01T20:47:07;17.80;99.90
24097;DHT22;12275;48.550;12.132;2022-09-01T20:49:35;17.70;99.90
24097;DHT22;12275;48.550;12.132;2022-09-01T20:52:25;17.70;99.90
24097;DHT22;12275;48.550;12.132;2022-09-01T20:54:58;17.60;99.90
24097;DHT22;12275;48.550;12.132;2022-09-01T21:00:05;17.50;99.90
24097;DHT22;12275;48.550;12.132;2022-09-01T21:16:12;17.40;99.90
24097;DHT22;12275;48.550;12.132;2022-09-01T21:19:11;17.40;99.90
24097;DHT22;12275;48.550;12.132;2022-09-01T21:24:09;17.50;99.90
24097;DHT22;12275;48.550;12.132;2022-09-01T21:26:36;17.40;99.90
24097;DHT22;12275;48.550;12.132;2022-09-01T21:30:20;17.40;99.90
24097;DHT22;12275;48.550;12.132;2022-09-01T21:32:14;17.40;99.90
24097;DHT22;12275;48.550;12.132;2022-09-01T21:34:44;17.30;99.90
24097;DHT22;12275;48.550;12.132;2022-09-01T21:37:10;17.30;99.90
24097;DHT22;12275;48.550;12.132;2022-09-01T21:39:36;17.30;99.90
24097;DHT22;12275;48.550;12.132;2022-09-01T21:42:03;17.30;99.90
24097;DHT22;12275;48.550;12.132;2022-09-01T21:44:30;17.30;99.90
24097;DHT22;12275;48.550;12.132;2022-09-01T21:46:57;17.20;99.90
24097;DHT22;12275;48.550;12.132;2022-09-01T21:49:23;17.20;99.90
24097;DHT22;12275;48.550;12.132;2022-09-01T21:51:48;17.20;99.90
24097;DHT22;12275;48.550;12.132;2022-09-01T21:54:15;17.20;99.90
24097;DHT22;12275;48.550;12.132;2022-09-01T21:56:41;17.10;99.90
24097;DHT22;12275;48.550;12.132;2022-09-01T21:59:10;17.10;99.90
24097;DHT22;12275;48.550;12.132;2022-09-01T22:01:37;17.10;99.90
24097;DHT22;12275;48.550;12.132;2022-09-01T22:04:04;16.90;99.90
24097;DHT22;12275;48.550;12.132;2022-09-01T22:06:30;16.80;99.90
24097;DHT22;12275;48.550;12.132;2022-09-01T22:08:59;16.90;99.90
24097;DHT22;12275;48.550;12.132;2022-09-01T22:11:25;16.90;99.90
24097;DHT22;12275;48.550;12.132;2022-09-01T22:13:51;16.70;99.90
24097;DHT22;12275;48.550;12.132;2022-09-01T22:16:20;16.70;99.90
24097;DHT22;12275;48.550;12.132;2022-09-01T22:18:46;16.80;99.90
24097;DHT22;12275;48.550;12.132;2022-09-01T22:21:13;16.80;99.90
24097;DHT22;12275;48.550;12.132;2022-09-01T22:23:40;16.80;99.90
24097;DHT22;12275;48.550;12.132;2022-09-01T22:26:07;16.90;99.90
24097;DHT22;12275;48.550;12.132;2022-09-01T22:28:33;16.80;99.90
24097;DHT22;12275;48.550;12.132;2022-09-01T22:31:00;16.70;99.90
24097;DHT22;12275;48.550;12.132;2022-09-01T22:33:26;16.60;99.90
24097;DHT22;12275;48.550;12.132;2022-09-01T22:35:54;16.60;99.90
24097;DHT22;12275;48.550;12.132;2022-09-01T22:38:21;16.70;99.90
24097;DHT22;12275;48.550;12.132;2022-09-01T22:40:55;16.50;99.90
24097;DHT22;12275;48.550;12.132;2022-09-01T22:43:22;16.60;99.90
24097;DHT22;12275;48.550;12.132;2022-09-01T22:45:49;16.40;99.90
24097;DHT22;12275;48.550;12.132;2022-09-01T22:48:16;16.50;99.90
24097;DHT22;12275;48.550;12.132;2022-09-01T22:50:43;16.40;99.90
24097;DHT22;12275;48.550;12.132;2022-09-01T22:53:10;16.50;99.90
24097;DHT22;12275;48.550;12.132;2022-09-01T22:55:41;16.40;99.90
24097;DHT22;12275;48.550;12.132;2022-09-01T22:58:08;16.40;99.90
24097;DHT22;12275;48.550;12.132;2022-09-01T23:00:34;16.40;99.90
24097;DHT22;12275;48.550;12.132;2022-09-01T23:03:00;16.40;99.90
24097;DHT22;12275;48.550;12.132;2022-09-01T23:05:27;16.30;99.90
24097;DHT22;12275;48.550;12.132;2022-09-01T23:07:53;16.20;99.90
24097;DHT22;12275;48.550;12.132;2022-09-01T23:10:19;16.20;99.90
24097;DHT22;12275;48.550;12.132;2022-09-01T23:12:45;16.20;99.90
24097;DHT22;12275;48.550;12.132;2022-09-01T23:15:11;16.20;99.90
24097;DHT22;12275;48.550;12.132;2022-09-01T23:17:38;16.20;99.90
24097;DHT22;12275;48.550;12.132;2022-09-01T23:20:10;16.10;99.90
24097;DHT22;12275;48.550;12.132;2022-09-01T23:22:41;16.10;99.90
24097;DHT22;12275;48.550;12.132;2022-09-01T23:25:08;16.00;99.90
24097;DHT22;12275;48.550;12.132;2022-09-01T23:27:34;16.10;99.90